createdAt,value
2022-09-10T00:02:45.715Z,21.90
2022-09-10T00:08:49.481Z,21.80
2022-09-10T00:14:53.855Z,21.70
2022-09-10T00:20:57.360Z,21.60
2022-09-10T00:26:59.974Z,21.50
2022-09-10T00:33:02.144Z,21.40
2022-09-10T00:39:13.593Z,21.30
2022-09-10T00:45:24.902Z,21.20
2022-09-10T00:51:31.405Z,21.20
2022-09-10T00:57:33.555Z,21.20
2022-09-10T01:03:35.932Z,21.30
2022-09-10T01:09:39.911Z,21.40
2022-09-10T01:16:03.810Z,21.50
2022-09-10T01:22:36.154Z,21.60
2022-09-10T01:29:03.463Z,21.60
2022-09-10T01:35:13.827Z,21.50
2022-09-10T01:41:17.201Z,21.50
2022-09-10T01:47:39.546Z,21.70
2022-09-10T01:54:11.939Z,21.50
2022-09-10T02:00:18.159Z,21.40
2022-09-10T02:06:28.299Z,21.30
2022-09-10T02:12:30.939Z,21.30
2022-09-10T02:18:52.077Z,21.20
2022-09-10T02:24:54.589Z,21.10
2022-09-10T02:30:56.716Z,20.90
2022-09-10T02:36:59.319Z,20.90
2022-09-10T02:43:01.615Z,20.80
2022-09-10T02:49:05.183Z,20.70
2022-09-10T02:55:13.105Z,20.70
2022-09-10T03:01:19.670Z,20.70
2022-09-10T03:07:29.124Z,20.60
2022-09-10T03:13:31.307Z,20.60
2022-09-10T03:19:34.345Z,20.60
2022-09-10T03:25:36.758Z,20.50
2022-09-10T03:31:40.219Z,20.50
2022-09-10T03:37:42.540Z,20.50
2022-09-10T03:43:45.126Z,20.60
2022-09-10T03:49:47.420Z,20.50
2022-09-10T03:55:51.390Z,20.60
2022-09-10T04:01:53.492Z,20.60
2022-09-10T04:07:59.180Z,20.60
2022-09-10T04:14:02.044Z,20.60
2022-09-10T04:20:04.502Z,20.50
2022-09-10T04:26:17.741Z,20.70
2022-09-10T04:32:23.096Z,20.70
2022-09-10T04:38:25.638Z,20.60
2022-09-10T04:44:29.846Z,20.80
2022-09-10T04:50:32.327Z,20.80
2022-09-10T04:56:52.742Z,20.90
2022-09-10T05:02:55.401Z,21.00
2022-09-10T05:08:58.806Z,22.80
2022-09-10T05:15:03.553Z,23.20
2022-09-10T05:21:06.386Z,24.70
2022-09-10T05:27:09.726Z,28.50
2022-09-10T05:33:12.974Z,29.90
2022-09-10T05:39:16.014Z,31.70
2022-09-10T05:45:20.567Z,33.50
2022-09-10T05:51:22.997Z,33.90
2022-09-10T05:57:26.142Z,35.40
2022-09-10T06:03:28.669Z,36.20
2022-09-10T06:09:35.347Z,36.00
2022-09-10T06:16:01.243Z,36.90
2022-09-10T06:22:04.449Z,37.20
2022-09-10T06:28:13.083Z,38.30
2022-09-10T06:34:19.200Z,38.70
2022-09-10T06:40:21.990Z,39.60
2022-09-10T06:47:02.891Z,38.50
2022-09-10T06:52:49.593Z,37.70
2022-09-10T06:58:57.545Z,34.10
2022-09-10T07:05:06.875Z,30.40
2022-09-10T07:11:15.275Z,30.10
2022-09-10T07:17:21.543Z,29.90
2022-09-10T07:23:24.127Z,31.40
2022-09-10T07:29:31.541Z,36.40
2022-09-10T07:35:38.750Z,37.10
2022-09-10T07:41:42.073Z,38.70
2022-09-10T07:47:48.186Z,39.50
2022-09-10T07:53:56.129Z,41.40
2022-09-10T08:00:00.849Z,42.30
2022-09-10T08:06:17.363Z,41.10
2022-09-10T08:12:25.784Z,41.50
2022-09-10T08:18:30.023Z,42.10
2022-09-10T08:24:33.769Z,41.50
2022-09-10T08:30:36.662Z,41.30
2022-09-10T08:36:39.857Z,41.90
2022-09-10T08:42:50.555Z,41.90
2022-09-10T08:49:09.217Z,41.70
2022-09-10T08:55:11.678Z,42.60
2022-09-10T09:01:45.303Z,42.30
2022-09-10T09:07:49.850Z,41.10
2022-09-10T09:14:17.187Z,40.30
2022-09-10T09:20:36.761Z,41.40
2022-09-10T09:26:39.879Z,41.70
2022-09-10T09:32:45.614Z,41.60
2022-09-10T09:38:51.322Z,37.70
2022-09-10T09:45:08.394Z,35.70
2022-09-10T09:51:13.911Z,35.60
2022-09-10T09:57:19.883Z,38.70
2022-09-10T10:03:28.446Z,39.30
2022-09-10T10:09:34.003Z,39.70
2022-09-10T10:15:42.459Z,40.50
2022-09-10T10:21:47.267Z,40.80
2022-09-10T10:27:51.639Z,40.90
2022-09-10T10:34:15.520Z,41.30
2022-09-10T10:40:47.013Z,40.80
2022-09-10T10:47:16.681Z,39.10
2022-09-10T10:53:39.436Z,40.20
2022-09-10T11:00:05.537Z,40.00
2022-09-10T11:06:20.644Z,39.20
2022-09-10T11:12:35.123Z,37.30
2022-09-10T11:18:43.981Z,36.20
2022-09-10T11:24:53.177Z,36.80
2022-09-10T11:31:03.564Z,36.80
2022-09-10T11:37:19.740Z,35.80
2022-09-10T11:43:37.748Z,38.50
2022-09-10T11:49:48.573Z,37.70
2022-09-10T11:56:09.797Z,36.00
2022-09-10T12:02:30.758Z,34.80
2022-09-10T12:08:57.881Z,33.60
2022-09-10T12:15:00.154Z,32.90
2022-09-10T12:21:09.136Z,32.50
2022-09-10T12:27:18.781Z,32.20
2022-09-10T12:33:21.751Z,31.90
2022-09-10T12:39:26.131Z,31.60
2022-09-10T12:46:02.825Z,31.30
2022-09-10T12:52:06.811Z,31.30
2022-09-10T12:58:41.597Z,31.20
2022-09-10T13:04:47.681Z,31.10
2022-09-10T13:11:22.935Z,30.70
2022-09-10T13:17:59.893Z,30.70
2022-09-10T13:24:02.673Z,31.10
2022-09-10T13:30:24.359Z,31.20
2022-09-10T13:36:45.569Z,31.60
2022-09-10T13:43:06.823Z,31.40
2022-09-10T13:49:21.963Z,31.30
2022-09-10T13:55:29.996Z,31.00
2022-09-10T14:01:52.713Z,30.90
2022-09-10T14:08:02.116Z,30.90
2022-09-10T14:14:09.826Z,31.10
2022-09-10T14:20:39.944Z,30.80
2022-09-10T14:26:42.010Z,30.60
2022-09-10T14:32:46.459Z,30.50
2022-09-10T14:39:17.069Z,30.70
2022-09-10T14:45:42.386Z,30.90
2022-09-10T14:51:44.671Z,30.70
2022-09-10T14:57:46.827Z,30.40
2022-09-10T15:03:48.986Z,30.20
2022-09-10T15:09:53.502Z,30.10
2022-09-10T15:15:56.141Z,30.20
2022-09-10T15:21:58.610Z,30.00
2022-09-10T15:28:00.706Z,29.70
2022-09-10T15:34:04.223Z,29.10
2022-09-10T15:40:06.813Z,28.70
2022-09-10T15:46:12.420Z,28.40
2022-09-10T15:52:14.583Z,28.20
2022-09-10T15:58:16.873Z,28.00
2022-09-10T16:04:19.544Z,27.80
2022-09-10T16:10:21.955Z,27.60
2022-09-10T16:16:27.212Z,27.30
2022-09-10T16:22:30.456Z,27.20
2022-09-10T16:28:33.475Z,27.10
2022-09-10T16:34:35.524Z,26.80
2022-09-10T16:40:37.838Z,26.60
2022-09-10T16:46:40.033Z,26.40
2022-09-10T16:52:42.456Z,26.20
2022-09-10T16:58:49.207Z,26.00
2022-09-10T17:04:51.454Z,25.80
2022-09-10T17:10:53.600Z,25.30
2022-09-10T17:16:56.554Z,25.00
2022-09-10T17:23:00.575Z,24.70
2022-09-10T17:29:05.554Z,24.50
2022-09-10T17:35:08.295Z,24.50
2022-09-10T17:41:13.203Z,24.60
2022-09-10T17:47:15.494Z,24.60
2022-09-10T17:53:18.284Z,24.60
2022-09-10T17:59:22.323Z,24.60
2022-09-10T18:05:26.851Z,24.60
2022-09-10T18:11:31.630Z,24.50
2022-09-10T18:17:33.696Z,24.60
2022-09-10T18:23:35.709Z,24.50
2022-09-10T18:29:41.670Z,24.50
2022-09-10T18:35:44.274Z,24.50
2022-09-10T18:41:46.823Z,24.60
2022-09-10T18:47:49.028Z,24.40
2022-09-10T18:54:00.352Z,24.40
2022-09-10T19:00:06.881Z,24.30
2022-09-10T19:06:10.996Z,24.20
2022-09-10T19:12:19.188Z,24.20
2022-09-10T19:18:21.793Z,24.00
2022-09-10T19:24:37.767Z,23.90
2022-09-10T19:30:47.964Z,23.90
2022-09-10T19:36:50.438Z,23.80
2022-09-10T19:42:52.521Z,23.80
2022-09-10T19:49:00.732Z,23.90
2022-09-10T19:55:03.463Z,23.80
2022-09-10T20:01:13.963Z,23.60
2022-09-10T20:07:16.610Z,23.50
2022-09-10T20:13:20.875Z,23.40
2022-09-10T20:19:22.994Z,23.20
2022-09-10T20:25:26.950Z,23.10
2022-09-10T20:31:32.119Z,23.00
2022-09-10T20:37:35.025Z,22.90
2022-09-10T20:43:37.838Z,22.70
2022-09-10T20:49:39.969Z,22.60
2022-09-10T20:55:42.037Z,22.40
2022-09-10T21:01:46.668Z,22.30
2022-09-10T21:07:50.396Z,22.20
2022-09-10T21:13:55.492Z,22.10
2022-09-10T21:19:57.865Z,22.10
2022-09-10T21:26:00.003Z,22.10
2022-09-10T21:32:02.758Z,22.10
2022-09-10T21:38:06.181Z,22.10
2022-09-10T21:44:14.362Z,22.10
2022-09-10T21:50:17.754Z,22.10
2022-09-10T21:56:19.922Z,22.00
2022-09-10T22:02:23.506Z,22.50
2022-09-10T22:08:26.362Z,22.60
2022-09-10T22:14:28.451Z,22.40
2022-09-10T22:20:30.402Z,22.40
2022-09-10T22:26:33.678Z,22.40
2022-09-10T22:32:35.856Z,22.30
2022-09-10T22:38:38.063Z,22.30
2022-09-10T22:44:40.359Z,22.30
2022-09-10T22:50:42.611Z,22.30
2022-09-10T22:56:44.954Z,22.30
2022-09-10T23:02:48.069Z,22.30
2022-09-10T23:08:52.774Z,22.10
2022-09-10T23:14:54.911Z,22.30
2022-09-10T23:21:02.300Z,22.10
2022-09-10T23:27:04.678Z,22.10
2022-09-10T23:33:06.829Z,22.00
2022-09-10T23:39:14.925Z,22.00
2022-09-10T23:45:17.292Z,21.90
2022-09-10T23:51:20.111Z,21.90
2022-09-10T23:57:22.354Z,22.00
